createdAt,value
2023-03-23T15:59:42.521Z,98259.20
2023-03-23T16:02:27.525Z,98258.40
2023-03-23T16:05:03.970Z,98254.60
2023-03-23T16:07:40.360Z,98255.80
2023-03-23T16:10:25.422Z,98255.00
2023-03-23T16:13:02.052Z,98258.80
2023-03-23T16:15:38.728Z,98263.80
2023-03-23T16:18:23.136Z,98261.40
2023-03-23T16:20:59.451Z,98259.80
2023-03-23T16:23:36.223Z,98264.80
2023-03-23T16:26:12.981Z,98271.00
2023-03-23T16:28:50.588Z,98266.60
2023-03-23T16:31:28.495Z,98262.40
2023-03-23T16:34:05.584Z,98262.20
2023-03-23T16:36:42.010Z,98257.80
2023-03-23T16:39:19.419Z,98262.60
2023-03-23T16:41:55.901Z,98261.40
2023-03-23T16:44:32.508Z,98262.60
2023-03-23T16:47:09.250Z,98262.00
2023-03-23T16:49:45.727Z,98261.20
2023-03-23T16:52:22.478Z,98256.20
2023-03-23T16:54:58.697Z,98260.40
2023-03-23T16:57:38.296Z,98260.20
2023-03-23T17:00:22.112Z,98260.60
2023-03-23T17:02:59.765Z,98261.20
2023-03-23T17:05:38.531Z,98261.20
2023-03-23T17:08:15.311Z,98263.60
2023-03-23T17:10:52.781Z,98272.00
2023-03-23T17:13:29.249Z,98273.20
2023-03-23T17:16:06.305Z,98268.40
2023-03-23T17:18:42.690Z,98275.60
2023-03-23T17:21:20.836Z,98274.60
2023-03-23T17:23:57.287Z,98279.20
2023-03-23T17:26:33.664Z,98279.60
2023-03-23T17:29:10.900Z,98282.20
2023-03-23T17:31:47.562Z,98284.60
2023-03-23T17:34:24.033Z,98283.20
2023-03-23T17:37:00.354Z,98281.40
2023-03-23T17:39:42.504Z,98286.00
2023-03-23T17:42:19.779Z,98281.80
2023-03-23T17:44:56.410Z,98284.20
2023-03-23T17:47:33.064Z,98283.40
2023-03-23T17:50:13.203Z,98282.80
2023-03-23T17:52:50.148Z,98287.00
2023-03-23T17:55:26.508Z,98288.20
2023-03-23T17:58:03.053Z,98284.40
2023-03-23T18:00:40.015Z,98296.80
2023-03-23T18:03:16.869Z,98300.00
2023-03-23T18:05:59.130Z,98304.40
2023-03-23T18:08:36.435Z,98305.80
2023-03-23T18:11:13.579Z,98306.00
2023-03-23T18:13:50.134Z,98312.80
2023-03-23T18:16:26.949Z,98309.00
2023-03-23T18:19:04.061Z,98312.40
2023-03-23T18:21:40.928Z,98308.60
2023-03-23T18:24:17.558Z,98308.00
2023-03-23T18:26:54.397Z,98303.60
2023-03-23T18:29:31.908Z,98297.80
2023-03-23T18:32:09.101Z,98299.40
2023-03-23T18:34:48.713Z,98298.60
2023-03-23T18:37:25.635Z,98307.60
2023-03-23T18:40:05.495Z,98304.00
2023-03-23T18:42:45.020Z,98312.20
2023-03-23T18:45:21.952Z,98318.40
2023-03-23T18:47:58.934Z,98331.20
2023-03-23T18:50:36.515Z,98333.20
2023-03-23T18:53:14.902Z,98328.80
2023-03-23T18:55:53.462Z,98330.20
2023-03-23T18:58:29.807Z,98328.60
2023-03-23T19:01:12.248Z,98327.80
2023-03-23T19:03:49.727Z,98326.60
2023-03-23T19:06:30.225Z,98329.40
2023-03-23T19:09:07.357Z,98332.40
2023-03-23T19:11:44.512Z,98331.60
2023-03-23T19:14:21.901Z,98333.20
2023-03-23T19:16:58.600Z,98335.80
2023-03-23T19:19:35.744Z,98335.40
2023-03-23T19:22:12.578Z,98334.00
2023-03-23T19:24:49.586Z,98330.80
2023-03-23T19:27:26.419Z,98334.00
2023-03-23T19:30:03.230Z,98340.60
2023-03-23T19:32:41.292Z,98343.80
2023-03-23T19:35:18.672Z,98344.60
2023-03-23T19:37:56.514Z,98343.40
2023-03-23T19:40:40.278Z,98339.60
2023-03-23T19:43:17.880Z,98336.00
2023-03-23T19:45:54.956Z,98332.40
2023-03-23T19:48:31.867Z,98334.60
2023-03-23T19:51:10.476Z,98328.20
2023-03-23T19:53:47.466Z,98327.80
2023-03-23T19:56:25.767Z,98328.20
2023-03-23T19:59:02.720Z,98331.40
2023-03-23T20:01:39.650Z,98334.00
2023-03-23T20:04:18.748Z,98328.00
2023-03-23T20:06:57.138Z,98327.20
2023-03-23T20:09:34.198Z,98325.00
2023-03-23T20:12:12.254Z,98331.20
2023-03-23T20:14:49.145Z,98331.00
2023-03-23T20:17:26.017Z,98329.60
2023-03-23T20:20:06.346Z,98331.60
2023-03-23T20:22:43.828Z,98334.80
2023-03-23T20:25:21.613Z,98334.60
2023-03-23T20:27:58.672Z,98336.80
2023-03-23T20:30:36.542Z,98338.80
2023-03-23T20:33:14.255Z,98339.20
2023-03-23T20:35:52.110Z,98339.00
2023-03-23T20:38:30.644Z,98338.80
2023-03-23T20:41:11.684Z,98337.80
2023-03-23T20:43:49.077Z,98341.40
2023-03-23T20:46:25.805Z,98344.80
2023-03-23T20:49:02.905Z,98345.40
2023-03-23T20:51:40.156Z,98355.80
2023-03-23T20:54:19.936Z,98354.80
2023-03-23T20:56:58.558Z,98362.80
2023-03-23T20:59:36.189Z,98364.40
2023-03-23T21:02:17.026Z,98364.20
2023-03-23T21:04:54.116Z,98358.20
2023-03-23T21:07:30.894Z,98362.60
2023-03-23T21:10:08.486Z,98368.40
2023-03-23T21:12:45.423Z,98367.40
2023-03-23T21:15:22.360Z,98366.60
2023-03-23T21:18:00.131Z,98364.20
2023-03-23T21:20:37.795Z,98367.00
2023-03-23T21:23:15.009Z,98377.60
2023-03-23T21:25:52.172Z,98378.80
2023-03-23T21:28:29.577Z,98373.00
2023-03-23T21:31:09.842Z,98368.20
2023-03-23T21:33:46.437Z,98364.00
2023-03-23T21:36:24.853Z,98351.60
2023-03-23T21:39:02.312Z,98347.80
2023-03-23T21:41:42.686Z,98346.80
2023-03-23T21:44:20.747Z,98344.40
2023-03-23T21:46:56.982Z,98346.40
2023-03-23T21:49:33.565Z,98350.80
2023-03-23T21:52:10.038Z,98350.20
2023-03-23T21:54:46.900Z,98352.80
2023-03-23T21:57:23.144Z,98345.80
2023-03-23T21:59:59.867Z,98344.80
2023-03-23T22:02:36.936Z,98344.80
2023-03-23T22:05:14.282Z,98343.40
2023-03-23T22:07:52.312Z,98343.00
2023-03-23T22:10:29.021Z,98348.00
2023-03-23T22:13:05.780Z,98350.20
2023-03-23T22:15:42.830Z,98354.60
2023-03-23T22:29:35.504Z,98359.60
2023-03-23T22:44:42.300Z,98366.20
2023-03-23T22:49:19.313Z,98368.60
2023-03-23T22:53:31.524Z,98381.20
2023-03-23T22:56:11.269Z,98381.60
2023-03-23T22:58:48.556Z,98377.80
2023-03-23T23:01:27.295Z,98382.00
2023-03-23T23:04:04.864Z,98379.20
2023-03-23T23:06:41.943Z,98382.40
2023-03-23T23:09:19.553Z,98379.40
2023-03-23T23:11:56.325Z,98379.20
2023-03-23T23:14:33.255Z,98375.20
2023-03-23T23:17:10.908Z,98375.60
2023-03-23T23:19:47.726Z,98375.60
2023-03-23T23:22:24.691Z,98375.40
2023-03-23T23:25:01.902Z,98376.80
2023-03-23T23:27:39.056Z,98377.20
2023-03-23T23:30:18.485Z,98372.20
2023-03-23T23:32:56.827Z,98372.60
2023-03-23T23:35:34.809Z,98365.40
2023-03-23T23:38:12.824Z,98368.60
2023-03-23T23:40:50.611Z,98369.20
2023-03-23T23:43:27.668Z,98369.80
2023-03-23T23:46:04.409Z,98371.40
2023-03-23T23:48:42.036Z,98371.60
2023-03-23T23:51:19.139Z,98370.80
2023-03-23T23:53:59.323Z,98368.80
2023-03-23T23:56:36.232Z,98371.80
2023-03-23T23:59:13.178Z,98365.20
